Time;durP1;ratioP1;P1;durP2;ratioP2;P2;SDS_P1;SDS_P2;PMS_P1;PMS_P2;Temp;Humidity;BMP_temperature;BMP_pressure;BME280_temperature;BME280_humidity;BME280_pressure;Samples;Min_cycle;Max_cycle;Signal;HPM_P1;HPM_P2
2021/05/20 00:01:06;;;;;;;;;;;23.40;45.80;;;;;;1605776;72;751;-73
2021/05/20 00:03:08;;;;;;;;;;;23.40;45.70;;;;;;1626161;72;802;-73
2021/05/20 00:05:11;;;;;;;;;;;23.40;45.80;;;;;;1616691;72;794;-72
2021/05/20 00:07:13;;;;;;;;;;;23.40;45.80;;;;;;1615961;72;738;-70
2021/05/20 00:09:15;;;;;;;;;;;23.40;45.80;;;;;;1614173;72;1141;-71
2021/05/20 00:11:16;;;;;;;;;;;23.40;45.70;;;;;;1611227;72;792;-73
2021/05/20 00:13:18;;;;;;;;;;;23.50;45.80;;;;;;1623726;72;776;-74
2021/05/20 00:15:20;;;;;;;;;;;23.40;45.60;;;;;;1615161;72;779;-73
2021/05/20 00:17:22;;;;;;;;;;;23.50;45.80;;;;;;1618360;72;1951;-72
2021/05/20 00:19:24;;;;;;;;;;;23.40;45.70;;;;;;1621182;72;1152;-73
2021/05/20 00:21:26;;;;;;;;;;;23.40;45.70;;;;;;1606949;72;735;-72
2021/05/20 00:23:28;;;;;;;;;;;23.40;45.70;;;;;;1610796;73;752;-72
2021/05/20 00:25:29;;;;;;;;;;;23.40;45.70;;;;;;1614940;72;774;-72
2021/05/20 00:27:31;;;;;;;;;;;23.50;45.70;;;;;;1615598;72;785;-72
2021/05/20 00:37:58;;;;;;;;;;;23.30;45.70;;;;;;1622607;72;1893;-72
2021/05/20 00:40:00;;;;;;;;;;;23.30;45.80;;;;;;1612609;73;761;-72
2021/05/20 00:42:11;;;;;;;;;;;23.20;45.70;;;;;;1611240;72;710;-72
2021/05/20 00:44:13;;;;;;;;;;;23.30;45.90;;;;;;1612520;72;825;-72
2021/05/20 00:46:15;;;;;;;;;;;23.30;45.80;;;;;;1609082;72;790;-73
2021/05/20 00:48:17;;;;;;;;;;;23.30;45.80;;;;;;1612406;72;1121;-69
2021/05/20 00:50:19;;;;;;;;;;;23.30;45.80;;;;;;1617175;72;851;-72
2021/05/20 00:52:20;;;;;;;;;;;23.30;45.70;;;;;;1612439;72;777;-72
2021/05/20 00:54:22;;;;;;;;;;;23.30;45.80;;;;;;1621448;72;787;-72
2021/05/20 00:56:25;;;;;;;;;;;23.30;45.70;;;;;;1614207;72;1919;-71
2021/05/20 00:58:27;;;;;;;;;;;23.30;45.90;;;;;;1614965;71;1145;-71
2021/05/20 01:00:29;;;;;;;;;;;23.30;46.00;;;;;;1619912;72;810;-71
2021/05/20 01:02:30;;;;;;;;;;;23.30;46.00;;;;;;1613601;72;754;-70
2021/05/20 01:04:32;;;;;;;;;;;23.40;46.00;;;;;;1618335;72;756;-70
2021/05/20 01:06:34;;;;;;;;;;;23.30;46.00;;;;;;1618029;72;805;-70
2021/05/20 01:08:36;;;;;;;;;;;23.40;46.00;;;;;;1618482;71;1109;-72
2021/05/20 01:10:38;;;;;;;;;;;23.40;46.00;;;;;;1621080;72;895;-72
2021/05/20 01:12:40;;;;;;;;;;;23.30;46.10;;;;;;1622613;72;742;-71
2021/05/20 01:14:43;;;;;;;;;;;23.40;46.00;;;;;;1622508;72;758;-70
2021/05/20 01:16:47;;;;;;;;;;;23.40;46.00;;;;;;1619726;73;1930;-71
2021/05/20 01:18:50;;;;;;;;;;;23.30;46.00;;;;;;1614506;72;1180;-72
2021/05/20 01:20:52;;;;;;;;;;;23.30;46.00;;;;;;1618238;72;786;-71
2021/05/20 01:22:55;;;;;;;;;;;23.40;46.00;;;;;;1619450;72;671;-72
2021/05/20 01:24:57;;;;;;;;;;;23.40;46.00;;;;;;1619286;72;1741;-71
2021/05/20 01:27:00;;;;;;;;;;;23.30;45.90;;;;;;1618690;72;727;-72
2021/05/20 01:29:01;;;;;;;;;;;23.30;45.80;;;;;;1619769;72;1174;-72
2021/05/20 01:31:04;;;;;;;;;;;23.40;45.80;;;;;;1602385;72;703;-72
2021/05/20 01:33:06;;;;;;;;;;;23.20;45.80;;;;;;1619914;72;797;-71
2021/05/20 01:35:08;;;;;;;;;;;23.30;45.90;;;;;;1620100;72;781;-72
2021/05/20 01:37:10;;;;;;;;;;;23.40;45.80;;;;;;1610166;72;1928;-70
2021/05/20 01:39:12;;;;;;;;;;;23.40;45.80;;;;;;1614740;72;1130;-72
2021/05/20 01:41:14;;;;;;;;;;;23.40;45.80;;;;;;1617595;72;716;-72
2021/05/20 01:43:16;;;;;;;;;;;23.30;45.70;;;;;;1610582;72;759;-71
2021/05/20 01:45:18;;;;;;;;;;;23.40;45.30;;;;;;1610413;72;794;-72
2021/05/20 01:47:20;;;;;;;;;;;23.30;45.40;;;;;;1610118;72;785;-71
2021/05/20 01:49:21;;;;;;;;;;;23.40;45.40;;;;;;1606066;72;1170;-71
2021/05/20 01:51:23;;;;;;;;;;;23.40;45.40;;;;;;1605508;72;766;-73
2021/05/20 01:53:25;;;;;;;;;;;23.30;45.50;;;;;;1602611;72;767;-73
2021/05/20 01:55:27;;;;;;;;;;;23.30;45.50;;;;;;1605748;72;759;-72
2021/05/20 01:57:29;;;;;;;;;;;23.40;45.50;;;;;;1606529;72;1941;-68
2021/05/20 01:59:31;;;;;;;;;;;23.30;45.20;;;;;;1605057;72;1126;-67
2021/05/20 02:01:33;;;;;;;;;;;23.30;45.10;;;;;;1607853;72;695;-69
2021/05/20 02:03:35;;;;;;;;;;;23.40;44.80;;;;;;1605360;72;680;-67
2021/05/20 02:05:37;;;;;;;;;;;23.30;45.00;;;;;;1605513;72;757;-69
2021/05/20 02:07:39;;;;;;;;;;;23.20;45.00;;;;;;1609584;72;729;-69
2021/05/20 02:09:41;;;;;;;;;;;23.40;45.20;;;;;;1610039;72;1103;-69
2021/05/20 02:11:43;;;;;;;;;;;23.20;45.10;;;;;;1610282;72;732;-70
2021/05/20 02:13:45;;;;;;;;;;;23.30;45.20;;;;;;1616294;72;755;-69
2021/05/20 02:15:47;;;;;;;;;;;23.30;45.20;;;;;;1612185;72;735;-70
2021/05/20 02:17:49;;;;;;;;;;;23.20;45.10;;;;;;1610950;72;1916;-69
2021/05/20 02:19:51;;;;;;;;;;;23.20;45.20;;;;;;1641396;71;218388;-56
2021/05/20 02:21:53;;;;;;;;;;;23.20;45.20;;;;;;1646408;70;801;-56
2021/05/20 02:23:55;;;;;;;;;;;23.20;45.20;;;;;;1641461;71;700;-56
2021/05/20 02:25:57;;;;;;;;;;;23.20;45.10;;;;;;1648503;71;764;-54
2021/05/20 02:27:59;;;;;;;;;;;23.20;45.10;;;;;;1642676;71;800;-54
2021/05/20 02:30:01;;;;;;;;;;;23.20;45.10;;;;;;1644184;70;1172;-52
2021/05/20 02:32:03;;;;;;;;;;;23.20;45.10;;;;;;1643678;71;750;-56
2021/05/20 02:34:04;;;;;;;;;;;23.20;45.10;;;;;;1649639;70;769;-55
2021/05/20 02:36:07;;;;;;;;;;;23.20;45.00;;;;;;1641517;71;752;-56
2021/05/20 02:38:08;;;;;;;;;;;23.30;45.10;;;;;;1647818;71;1926;-56
2021/05/20 02:40:11;;;;;;;;;;;23.30;45.00;;;;;;1635517;70;1131;-56
2021/05/20 02:42:13;;;;;;;;;;;23.20;44.90;;;;;;1636550;71;726;-57
2021/05/20 02:44:15;;;;;;;;;;;23.20;44.80;;;;;;1640643;71;719;-57
2021/05/20 02:46:17;;;;;;;;;;;23.20;44.80;;;;;;1634401;71;758;-57
2021/05/20 02:48:19;;;;;;;;;;;23.30;44.80;;;;;;1640193;71;723;-57
2021/05/20 02:50:21;;;;;;;;;;;23.20;44.70;;;;;;1636660;70;1156;-56
2021/05/20 02:52:23;;;;;;;;;;;23.30;44.70;;;;;;1635950;70;902;-56
2021/05/20 02:54:25;;;;;;;;;;;23.30;44.70;;;;;;1642983;70;787;-56
2021/05/20 02:56:27;;;;;;;;;;;23.20;44.50;;;;;;1644442;71;802;-56
2021/05/20 02:58:29;;;;;;;;;;;23.30;44.70;;;;;;1635461;70;801;-57
2021/05/20 03:00:35;;;;;;;;;;;23.20;44.60;;;;;;1646026;71;1118;-56
2021/05/20 03:02:37;;;;;;;;;;;23.20;44.60;;;;;;1639824;70;1687;-56
2021/05/20 03:04:39;;;;;;;;;;;23.20;44.60;;;;;;1641791;71;741;-56
2021/05/20 03:06:41;;;;;;;;;;;23.20;44.60;;;;;;1641201;70;797;-56
2021/05/20 03:08:43;;;;;;;;;;;23.20;44.70;;;;;;1645481;70;770;-57
2021/05/20 03:10:45;;;;;;;;;;;23.20;44.60;;;;;;1642328;71;1136;-57
2021/05/20 03:12:46;;;;;;;;;;;23.20;44.70;;;;;;1646384;71;785;-56
2021/05/20 03:14:48;;;;;;;;;;;23.20;44.60;;;;;;1637683;70;723;-57
2021/05/20 03:16:50;;;;;;;;;;;23.20;44.50;;;;;;1636833;71;1931;-57
2021/05/20 03:18:52;;;;;;;;;;;23.20;44.50;;;;;;1640776;70;911;-53
2021/05/20 03:20:54;;;;;;;;;;;23.20;44.40;;;;;;1640149;71;1144;-55
2021/05/20 03:22:56;;;;;;;;;;;23.30;44.40;;;;;;1643190;71;762;-53
2021/05/20 03:24:58;;;;;;;;;;;23.20;44.20;;;;;;1647636;70;776;-56
2021/05/20 03:27:00;;;;;;;;;;;23.30;44.30;;;;;;1643709;71;682;-56
2021/05/20 03:29:02;;;;;;;;;;;23.30;44.20;;;;;;1640157;70;768;-53
2021/05/20 03:31:03;;;;;;;;;;;23.40;44.10;;;;;;1638984;71;1137;-56
2021/05/20 03:33:05;;;;;;;;;;;23.30;44.20;;;;;;1639214;71;694;-56
2021/05/20 03:35:08;;;;;;;;;;;23.30;44.20;;;;;;1641003;70;729;-56
2021/05/20 03:37:09;;;;;;;;;;;23.40;44.20;;;;;;1640725;70;1919;-56
2021/05/20 03:39:11;;;;;;;;;;;23.40;44.00;;;;;;1642305;71;838;-56
2021/05/20 03:41:13;;;;;;;;;;;23.30;44.00;;;;;;1644523;71;1066;-55
2021/05/20 03:43:15;;;;;;;;;;;23.40;43.90;;;;;;1640788;71;750;-52
2021/05/20 03:45:17;;;;;;;;;;;23.40;43.90;;;;;;1642621;70;775;-57
2021/05/20 03:47:19;;;;;;;;;;;23.40;43.80;;;;;;1644561;70;718;-57
2021/05/20 03:49:21;;;;;;;;;;;23.40;43.80;;;;;;1649352;71;785;-56
2021/05/20 03:51:23;;;;;;;;;;;23.40;43.70;;;;;;1638810;71;1180;-56
2021/05/20 03:53:29;;;;;;;;;;;23.40;43.70;;;;;;1650391;71;796;-56
2021/05/20 03:55:28;;;;;;;;;;;23.40;43.60;;;;;;1643764;70;1601;-56
2021/05/20 03:57:30;;;;;;;;;;;23.40;43.60;;;;;;1644108;70;1951;-56
2021/05/20 03:59:32;;;;;;;;;;;23.40;43.70;;;;;;1641143;70;753;-53
2021/05/20 04:01:34;;;;;;;;;;;23.40;43.70;;;;;;1645405;71;1050;-57
2021/05/20 04:03:36;;;;;;;;;;;23.50;43.70;;;;;;1643817;70;808;-57
2021/05/20 04:05:38;;;;;;;;;;;23.40;43.80;;;;;;1646008;71;730;-57
2021/05/20 04:07:39;;;;;;;;;;;23.40;43.80;;;;;;1657710;70;689;-56
2021/05/20 04:09:42;;;;;;;;;;;23.40;43.80;;;;;;1650420;71;1124;-56
2021/05/20 04:11:44;;;;;;;;;;;23.40;43.80;;;;;;1645402;71;669;-56
2021/05/20 04:13:46;;;;;;;;;;;23.40;44.00;;;;;;1643679;70;677;-57
2021/05/20 04:15:47;;;;;;;;;;;23.40;44.10;;;;;;1644679;71;794;-52
2021/05/20 04:17:49;;;;;;;;;;;23.40;44.00;;;;;;1644405;71;1942;-53
2021/05/20 04:19:51;;;;;;;;;;;23.40;44.10;;;;;;1643587;70;1118;-56
2021/05/20 04:21:53;;;;;;;;;;;23.50;44.20;;;;;;1648775;71;730;-57
2021/05/20 04:23:55;;;;;;;;;;;23.50;44.20;;;;;;1648075;70;856;-57
2021/05/20 04:25:57;;;;;;;;;;;23.50;44.30;;;;;;1646370;71;751;-56
2021/05/20 04:27:59;;;;;;;;;;;23.40;44.10;;;;;;1642539;71;761;-57
2021/05/20 04:30:01;;;;;;;;;;;23.50;44.20;;;;;;1641966;71;1108;-57
2021/05/20 04:32:02;;;;;;;;;;;23.40;44.00;;;;;;1646220;70;833;-54
2021/05/20 04:34:04;;;;;;;;;;;23.50;44.10;;;;;;1645674;70;734;-53
2021/05/20 04:36:06;;;;;;;;;;;23.40;43.90;;;;;;1649735;70;794;-52
2021/05/20 04:38:08;;;;;;;;;;;23.50;44.10;;;;;;1643497;71;1940;-56
2021/05/20 04:40:11;;;;;;;;;;;23.50;44.00;;;;;;1645083;71;1140;-56
2021/05/20 04:42:12;;;;;;;;;;;23.40;43.90;;;;;;1639920;70;792;-52
2021/05/20 04:44:14;;;;;;;;;;;23.40;43.90;;;;;;1645338;70;807;-54
2021/05/20 04:46:16;;;;;;;;;;;23.50;44.10;;;;;;1638005;70;754;-55
2021/05/20 04:48:18;;;;;;;;;;;23.50;44.00;;;;;;1648179;70;726;-55
2021/05/20 04:50:20;;;;;;;;;;;23.40;43.90;;;;;;1647596;70;1186;-56
2021/05/20 04:52:22;;;;;;;;;;;23.50;43.90;;;;;;1644587;71;703;-56
2021/05/20 04:54:24;;;;;;;;;;;23.40;43.80;;;;;;1640929;71;889;-56
2021/05/20 04:56:26;;;;;;;;;;;23.40;43.80;;;;;;1656584;71;725;-54
2021/05/20 04:58:27;;;;;;;;;;;23.40;43.90;;;;;;1655068;71;1934;-57
2021/05/20 05:00:29;;;;;;;;;;;23.40;43.80;;;;;;1653046;70;1124;-54
2021/05/20 05:02:31;;;;;;;;;;;23.40;43.80;;;;;;1659860;71;792;-55
2021/05/20 05:04:33;;;;;;;;;;;23.40;43.70;;;;;;1658947;70;666;-55
2021/05/20 05:06:35;;;;;;;;;;;23.40;43.70;;;;;;1656043;70;785;-57
2021/05/20 05:08:37;;;;;;;;;;;23.40;43.70;;;;;;1658024;70;773;-56
2021/05/20 05:10:39;;;;;;;;;;;23.40;43.60;;;;;;1647472;71;1123;-56
2021/05/20 05:12:41;;;;;;;;;;;23.40;43.60;;;;;;1647901;71;944;-56
2021/05/20 05:14:43;;;;;;;;;;;23.40;43.60;;;;;;1656573;70;758;-55
2021/05/20 05:16:45;;;;;;;;;;;23.50;43.60;;;;;;1658040;71;801;-53
2021/05/20 05:18:47;;;;;;;;;;;23.50;43.60;;;;;;1658239;71;1938;-55
2021/05/20 05:20:49;;;;;;;;;;;23.40;43.40;;;;;;1639939;71;1117;-56
2021/05/20 05:22:50;;;;;;;;;;;23.40;43.60;;;;;;1642478;71;710;-55
2021/05/20 05:24:52;;;;;;;;;;;23.40;43.80;;;;;;1649301;71;705;-57
2021/05/20 05:26:54;;;;;;;;;;;23.40;43.80;;;;;;1644843;71;795;-57
2021/05/20 05:28:56;;;;;;;;;;;23.40;43.90;;;;;;1644995;70;831;-57
2021/05/20 05:30:58;;;;;;;;;;;23.40;43.70;;;;;;1646049;70;1158;-55
2021/05/20 05:33:00;;;;;;;;;;;23.40;43.50;;;;;;1651352;71;704;-54
2021/05/20 05:35:02;;;;;;;;;;;23.40;43.40;;;;;;1653960;70;743;-57
2021/05/20 05:37:04;;;;;;;;;;;23.40;43.40;;;;;;1661051;71;689;-56
2021/05/20 05:39:06;;;;;;;;;;;23.40;43.40;;;;;;1646100;70;1933;-57
2021/05/20 05:41:08;;;;;;;;;;;23.30;43.80;;;;;;1651680;70;1140;-53
2021/05/20 05:43:10;;;;;;;;;;;23.40;43.90;;;;;;1657797;70;744;-57
2021/05/20 05:45:12;;;;;;;;;;;23.30;43.40;;;;;;1654620;71;683;-55
2021/05/20 05:47:14;;;;;;;;;;;23.30;43.50;;;;;;1646134;71;926;-57
2021/05/20 05:49:19;;;;;;;;;;;23.30;43.40;;;;;;1641636;71;703;-57
2021/05/20 05:51:22;;;;;;;;;;;23.20;43.20;;;;;;1644254;70;1661;-57
2021/05/20 05:53:23;;;;;;;;;;;23.20;43.10;;;;;;1649250;71;1505;-55
2021/05/20 05:55:25;;;;;;;;;;;23.20;43.10;;;;;;1649237;71;726;-57
2021/05/20 05:57:27;;;;;;;;;;;23.20;43.00;;;;;;1647821;70;717;-57
2021/05/20 05:59:28;;;;;;;;;;;23.10;43.10;;;;;;1653024;71;1931;-57
2021/05/20 06:01:30;;;;;;;;;;;23.00;43.20;;;;;;1654310;71;1077;-58
2021/05/20 06:03:33;;;;;;;;;;;23.10;43.20;;;;;;1643000;71;815;-57
2021/05/20 06:05:35;;;;;;;;;;;23.10;42.70;;;;;;1647262;70;808;-58
2021/05/20 06:07:37;;;;;;;;;;;23.20;42.80;;;;;;1641803;71;700;-58
2021/05/20 06:09:38;;;;;;;;;;;23.20;42.70;;;;;;1655524;71;826;-58
2021/05/20 06:11:43;;;;;;;;;;;23.20;42.10;;;;;;1656193;70;1166;-57
2021/05/20 06:13:44;;;;;;;;;;;23.30;42.20;;;;;;1650586;70;1987;-54
2021/05/20 06:15:46;;;;;;;;;;;23.20;42.00;;;;;;1659369;70;744;-56
2021/05/20 06:17:48;;;;;;;;;;;23.30;42.00;;;;;;1650864;70;1944;-58
2021/05/20 06:19:50;;;;;;;;;;;23.30;41.90;;;;;;1648493;70;1189;-58
2021/05/20 06:21:52;;;;;;;;;;;23.30;41.80;;;;;;1662526;71;776;-58
2021/05/20 06:23:53;;;;;;;;;;;23.30;41.80;;;;;;1650709;71;767;-56
2021/05/20 06:25:55;;;;;;;;;;;23.20;41.60;;;;;;1652440;70;1214;-57
2021/05/20 06:27:57;;;;;;;;;;;23.30;41.60;;;;;;1655972;71;724;-55
2021/05/20 06:29:59;;;;;;;;;;;23.30;41.60;;;;;;1648665;70;1126;-58
2021/05/20 06:32:01;;;;;;;;;;;23.20;41.40;;;;;;1643718;71;745;-58
2021/05/20 06:34:03;;;;;;;;;;;23.30;41.40;;;;;;1648698;71;738;-57
2021/05/20 06:36:05;;;;;;;;;;;23.20;41.30;;;;;;1653598;71;731;-59
2021/05/20 06:38:07;;;;;;;;;;;23.20;41.30;;;;;;1644494;71;1929;-56
2021/05/20 06:40:10;;;;;;;;;;;23.30;41.30;;;;;;1645434;70;1166;-59
2021/05/20 06:42:14;;;;;;;;;;;23.30;41.40;;;;;;1656588;71;777;-58
2021/05/20 06:44:15;;;;;;;;;;;23.20;41.40;;;;;;1649546;70;1710;-55
2021/05/20 06:46:17;;;;;;;;;;;23.20;41.90;;;;;;1641615;71;778;-58
2021/05/20 06:48:19;;;;;;;;;;;23.10;42.90;;;;;;1641621;70;871;-56
2021/05/20 06:50:21;;;;;;;;;;;23.10;43.60;;;;;;1645310;70;1185;-56
2021/05/20 06:52:23;;;;;;;;;;;23.10;43.80;;;;;;1639561;71;748;-56
2021/05/20 06:54:25;;;;;;;;;;;23.20;43.60;;;;;;1642467;70;837;-55
2021/05/20 06:56:29;;;;;;;;;;;23.20;43.20;;;;;;1637748;70;650;-59
2021/05/20 07:00:50;;;;;;;;;;;23.20;43.10;;;;;;1644725;70;1618;-58
2021/05/20 07:02:52;;;;;;;;;;;23.30;43.10;;;;;;1639589;70;666;-56
2021/05/20 07:04:53;;;;;;;;;;;23.30;43.10;;;;;;1643350;70;786;-55
2021/05/20 07:07:00;;;;;;;;;;;23.30;43.00;;;;;;1639251;70;866;-56
2021/05/20 07:08:59;;;;;;;;;;;23.30;42.80;;;;;;1631682;71;1652;-58
2021/05/20 07:11:01;;;;;;;;;;;23.30;42.80;;;;;;1640288;70;1154;-58
2021/05/20 07:13:04;;;;;;;;;;;23.30;42.60;;;;;;1636672;70;792;-58
2021/05/20 07:15:06;;;;;;;;;;;23.40;42.50;;;;;;1641446;70;779;-59
2021/05/20 07:17:08;;;;;;;;;;;23.30;42.30;;;;;;1638948;71;766;-55
2021/05/20 07:19:10;;;;;;;;;;;23.40;42.20;;;;;;1645441;70;1934;-58
2021/05/20 07:21:12;;;;;;;;;;;23.30;42.20;;;;;;1630621;70;1148;-58
2021/05/20 07:23:14;;;;;;;;;;;23.40;42.10;;;;;;1633155;70;863;-58
2021/05/20 07:25:16;;;;;;;;;;;23.30;42.00;;;;;;1633729;70;712;-57
2021/05/20 07:27:18;;;;;;;;;;;23.30;41.90;;;;;;1631178;70;782;-58
2021/05/20 07:29:20;;;;;;;;;;;23.30;41.80;;;;;;1654572;71;723;-57
2021/05/20 07:31:22;;;;;;;;;;;23.50;41.80;;;;;;1649746;70;1152;-58
2021/05/20 07:33:24;;;;;;;;;;;23.40;41.60;;;;;;1638782;70;747;-57
2021/05/20 07:35:26;;;;;;;;;;;23.40;41.50;;;;;;1650492;71;742;-58
2021/05/20 07:37:28;;;;;;;;;;;23.50;41.40;;;;;;1635347;70;759;-58
2021/05/20 07:39:30;;;;;;;;;;;23.50;41.30;;;;;;1634895;70;1936;-58
2021/05/20 07:41:33;;;;;;;;;;;23.60;41.30;;;;;;1635789;70;1094;-55
2021/05/20 07:43:35;;;;;;;;;;;23.60;41.00;;;;;;1636724;70;842;-59
2021/05/20 07:45:37;;;;;;;;;;;23.60;40.70;;;;;;1631867;71;762;-58
2021/05/20 07:47:40;;;;;;;;;;;23.70;40.70;;;;;;1633279;71;741;-58
2021/05/20 07:49:41;;;;;;;;;;;23.60;40.50;;;;;;1647092;70;1187;-58
2021/05/20 07:51:43;;;;;;;;;;;23.60;40.50;;;;;;1645339;70;720;-57
2021/05/20 07:53:45;;;;;;;;;;;23.60;40.50;;;;;;1645460;70;753;-57
2021/05/20 07:55:47;;;;;;;;;;;23.60;40.50;;;;;;1658944;70;810;-57
2021/05/20 07:57:53;;;;;;;;;;;23.50;40.30;;;;;;1643420;70;666;-58
2021/05/20 07:59:52;;;;;;;;;;;23.50;40.30;;;;;;1646399;70;1922;-53
2021/05/20 08:02:13;;;;;;;;;;;23.60;40.50;;;;;;1647668;71;750;-58
2021/05/20 08:04:14;;;;;;;;;;;23.60;40.30;;;;;;1637780;70;1681;-57
2021/05/20 08:06:27;;;;;;;;;;;23.60;40.20;;;;;;1637566;70;1634;-57
2021/05/20 08:10:46;;;;;;;;;;;23.70;40.00;;;;;;1647743;71;1136;-58
2021/05/20 08:12:42;;;;;;;;;;;23.80;39.60;;;;;;1638239;71;1755;-55
2021/05/20 08:14:43;;;;;;;;;;;23.80;39.70;;;;;;1647477;70;740;-53
2021/05/20 08:16:45;;;;;;;;;;;23.80;39.20;;;;;;1640664;71;761;-57
2021/05/20 08:18:47;;;;;;;;;;;23.80;39.10;;;;;;1634381;71;216194;-68
2021/05/20 08:20:49;;;;;;;;;;;23.80;39.20;;;;;;1564109;74;729;-69
2021/05/20 08:22:51;;;;;;;;;;;23.70;39.20;;;;;;1562726;74;793;-70
2021/05/20 08:24:57;;;;;;;;;;;23.60;39.10;;;;;;1561146;74;876;-70
2021/05/20 08:26:56;;;;;;;;;;;23.60;39.10;;;;;;1566500;74;1234;-73
2021/05/20 08:28:58;;;;;;;;;;;23.60;39.20;;;;;;1562025;74;1195;-70
2021/05/20 08:31:00;;;;;;;;;;;23.60;39.10;;;;;;1554795;75;834;-69
2021/05/20 08:33:02;;;;;;;;;;;23.60;39.10;;;;;;1549985;74;681;-69
2021/05/20 08:35:05;;;;;;;;;;;23.60;39.20;;;;;;1552075;74;844;-70
2021/05/20 08:37:06;;;;;;;;;;;23.50;39.20;;;;;;1558041;75;761;-70
2021/05/20 08:39:08;;;;;;;;;;;23.50;39.20;;;;;;1557758;74;1940;-72
2021/05/20 08:41:10;;;;;;;;;;;23.60;39.30;;;;;;1556765;75;785;-69
2021/05/20 08:43:12;;;;;;;;;;;23.60;39.30;;;;;;1556276;75;875;-70
2021/05/20 08:45:18;;;;;;;;;;;23.50;39.40;;;;;;1553699;74;943;-69
2021/05/20 08:47:20;;;;;;;;;;;23.60;39.40;;;;;;1554705;74;706;-69
2021/05/20 08:49:22;;;;;;;;;;;23.60;39.30;;;;;;1556721;74;1162;-71
2021/05/20 08:51:24;;;;;;;;;;;23.60;39.40;;;;;;1546902;75;788;-71
2021/05/20 08:53:26;;;;;;;;;;;23.70;39.60;;;;;;1540085;74;809;-71
2021/05/20 08:55:29;;;;;;;;;;;23.70;39.70;;;;;;1581676;74;782;-71
2021/05/20 08:57:31;;;;;;;;;;;23.80;39.60;;;;;;1572872;73;1796;-71
2021/05/20 08:59:33;;;;;;;;;;;23.70;39.60;;;;;;1571929;75;1948;-71
2021/05/20 09:01:38;;;;;;;;;;;23.90;39.70;;;;;;1567379;75;777;-70
2021/05/20 09:03:42;;;;;;;;;;;23.80;39.50;;;;;;1562094;74;746;-71
2021/05/20 09:05:44;;;;;;;;;;;23.90;39.60;;;;;;1566294;74;1921;-72
2021/05/20 09:07:51;;;;;;;;;;;23.90;39.50;;;;;;1556381;74;697;-71
2021/05/20 09:09:54;;;;;;;;;;;23.90;39.40;;;;;;1566890;74;1077;-71
2021/05/20 09:11:57;;;;;;;;;;;23.90;39.50;;;;;;1567377;75;1634;-72
2021/05/20 09:14:02;;;;;;;;;;;23.90;39.50;;;;;;1570901;74;659;-71
2021/05/20 09:16:13;;;;;;;;;;;24.00;39.50;;;;;;1571484;74;750;-71
2021/05/20 09:18:17;;;;;;;;;;;23.90;39.50;;;;;;1568301;74;759;-69
2021/05/20 09:20:19;;;;;;;;;;;23.80;39.50;;;;;;1567672;74;1946;-71
2021/05/20 09:22:21;;;;;;;;;;;23.80;39.60;;;;;;1562291;74;776;-70
2021/05/20 09:24:41;;;;;;;;;;;23.80;39.60;;;;;;1565557;75;693;-71
2021/05/20 09:26:44;;;;;;;;;;;23.70;39.60;;;;;;1569194;74;791;-70
2021/05/20 09:28:49;;;;;;;;;;;23.80;39.70;;;;;;1570864;74;1152;-71
2021/05/20 09:30:51;;;;;;;;;;;23.70;39.90;;;;;;1571898;74;889;-70
2021/05/20 09:32:55;;;;;;;;;;;23.80;39.90;;;;;;1569273;74;785;-70
2021/05/20 09:34:58;;;;;;;;;;;23.80;39.80;;;;;;1566392;75;797;-71
2021/05/20 09:37:00;;;;;;;;;;;23.80;39.80;;;;;;1564217;74;1782;-71
2021/05/20 09:39:12;;;;;;;;;;;23.80;39.70;;;;;;1568183;74;1952;-71
2021/05/20 09:41:16;;;;;;;;;;;23.90;39.80;;;;;;1567072;74;775;-71
2021/05/20 09:43:19;;;;;;;;;;;23.80;39.70;;;;;;1567747;74;1793;-72
2021/05/20 09:45:22;;;;;;;;;;;23.80;39.70;;;;;;1562688;74;768;-71
2021/05/20 09:47:26;;;;;;;;;;;23.80;39.40;;;;;;1571512;74;751;-70
2021/05/20 09:49:28;;;;;;;;;;;23.80;39.40;;;;;;1569792;74;1993;-72
2021/05/20 09:51:29;;;;;;;;;;;23.80;39.50;;;;;;1567298;74;841;-72
2021/05/20 09:53:31;;;;;;;;;;;23.80;39.40;;;;;;1581947;74;741;-71
2021/05/20 09:55:33;;;;;;;;;;;23.80;39.40;;;;;;1578766;74;971;-71
2021/05/20 09:57:37;;;;;;;;;;;23.80;39.40;;;;;;1569215;74;804;-68
2021/05/20 09:59:39;;;;;;;;;;;23.80;39.50;;;;;;1567474;74;1928;-70
2021/05/20 10:01:42;;;;;;;;;;;23.90;39.40;;;;;;1564884;74;758;-73
2021/05/20 10:03:54;;;;;;;;;;;23.80;39.30;;;;;;1571931;74;813;-70
2021/05/20 10:05:59;;;;;;;;;;;23.80;39.30;;;;;;1568277;74;1662;-71
2021/05/20 10:08:01;;;;;;;;;;;23.70;39.20;;;;;;1551791;74;1644;-69
2021/05/20 10:10:03;;;;;;;;;;;23.60;38.60;;;;;;1572847;74;1154;-70
2021/05/20 10:12:07;;;;;;;;;;;23.60;39.00;;;;;;1561555;74;792;-67
2021/05/20 10:14:09;;;;;;;;;;;23.70;38.90;;;;;;1567120;74;1669;-69
2021/05/20 10:16:11;;;;;;;;;;;23.70;38.90;;;;;;1565159;74;803;-69
2021/05/20 10:18:14;;;;;;;;;;;23.70;38.90;;;;;;1565900;74;803;-68
2021/05/20 10:20:23;;;;;;;;;;;23.70;38.90;;;;;;1562370;74;1962;-69
2021/05/20 10:22:24;;;;;;;;;;;23.70;38.90;;;;;;1547459;75;613;-70
2021/05/20 10:24:29;;;;;;;;;;;23.70;38.90;;;;;;1560212;74;791;-71
2021/05/20 10:26:30;;;;;;;;;;;23.70;38.70;;;;;;1562664;74;1714;-71
2021/05/20 10:28:32;;;;;;;;;;;23.70;38.90;;;;;;1554878;74;736;-70
2021/05/20 10:30:34;;;;;;;;;;;23.80;38.90;;;;;;1560729;74;1121;-69
2021/05/20 10:32:36;;;;;;;;;;;23.70;38.90;;;;;;1559280;75;751;-68
2021/05/20 10:34:39;;;;;;;;;;;23.70;38.90;;;;;;1559848;74;902;-70
2021/05/20 10:36:43;;;;;;;;;;;23.70;38.90;;;;;;1571713;75;1446;-70
2021/05/20 10:38:44;;;;;;;;;;;23.70;38.90;;;;;;1579098;75;1663;-71
2021/05/20 10:40:46;;;;;;;;;;;23.70;38.90;;;;;;1568515;74;1940;-70
2021/05/20 10:42:48;;;;;;;;;;;23.70;38.90;;;;;;1564557;74;772;-70
2021/05/20 10:45:08;;;;;;;;;;;23.70;38.60;;;;;;1565942;75;797;-70
2021/05/20 10:47:10;;;;;;;;;;;23.70;38.80;;;;;;1562163;74;814;-70
2021/05/20 10:49:18;;;;;;;;;;;23.60;38.70;;;;;;1567459;74;1187;-69
2021/05/20 10:51:17;;;;;;;;;;;23.80;38.90;;;;;;1561602;74;1612;-69
2021/05/20 10:53:35;;;;;;;;;;;23.60;38.60;;;;;;1559837;75;751;-69
2021/05/20 10:55:37;;;;;;;;;;;23.70;38.70;;;;;;1562135;75;811;-68
2021/05/20 10:57:53;;;;;;;;;;;23.60;38.60;;;;;;1575703;74;799;-69
2021/05/20 10:59:55;;;;;;;;;;;23.60;38.50;;;;;;1568349;74;1928;-71
2021/05/20 11:01:57;;;;;;;;;;;23.60;38.10;;;;;;1567462;75;793;-69
2021/05/20 11:04:02;;;;;;;;;;;23.60;38.10;;;;;;1558979;75;761;-68
2021/05/20 11:06:04;;;;;;;;;;;23.50;37.70;;;;;;1545237;75;1714;-74
2021/05/20 11:08:09;;;;;;;;;;;23.50;37.70;;;;;;1557071;75;824;-72
2021/05/20 11:10:11;;;;;;;;;;;23.50;37.90;;;;;;1555928;75;1130;-73
2021/05/20 11:12:13;;;;;;;;;;;23.50;37.60;;;;;;1557482;75;754;-72
2021/05/20 11:14:16;;;;;;;;;;;23.50;37.60;;;;;;1562590;75;844;-72
2021/05/20 11:16:33;;;;;;;;;;;23.50;37.60;;;;;;1550316;75;738;-73
2021/05/20 11:18:38;;;;;;;;;;;23.50;37.60;;;;;;1557482;74;723;-67
2021/05/20 11:20:42;;;;;;;;;;;23.50;37.60;;;;;;1559609;75;1929;-70
2021/05/20 11:23:03;;;;;;;;;;;23.50;37.80;;;;;;1548727;75;1914;-70
2021/05/20 11:25:11;;;;;;;;;;;23.50;37.90;;;;;;1552548;75;829;-70
2021/05/20 11:27:16;;;;;;;;;;;23.50;37.90;;;;;;1554501;75;807;-71
2021/05/20 11:29:18;;;;;;;;;;;23.50;38.00;;;;;;1553858;74;1119;-70
2021/05/20 11:31:19;;;;;;;;;;;23.40;37.80;;;;;;1558585;74;1013;-71
2021/05/20 11:33:22;;;;;;;;;;;23.50;38.00;;;;;;1565824;74;726;-72
2021/05/20 11:37:38;;;;;;;;;;;23.40;38.00;;;;;;1559403;74;866;-70
2021/05/20 11:39:40;;;;;;;;;;;23.50;38.20;;;;;;1556566;75;1928;-70
2021/05/20 11:41:43;;;;;;;;;;;23.50;38.30;;;;;;1555954;74;811;-67
2021/05/20 11:43:45;;;;;;;;;;;23.50;38.30;;;;;;1558831;74;823;-70
2021/05/20 11:45:47;;;;;;;;;;;23.50;38.30;;;;;;1555728;74;668;-69
2021/05/20 11:47:52;;;;;;;;;;;23.30;38.10;;;;;;1553043;74;793;-71
2021/05/20 11:49:54;;;;;;;;;;;23.40;38.10;;;;;;1568376;74;1182;-72
2021/05/20 11:51:58;;;;;;;;;;;23.40;38.10;;;;;;1560401;74;662;-72
2021/05/20 11:54:11;;;;;;;;;;;23.40;37.80;;;;;;1561437;74;978;-72
2021/05/20 11:56:13;;;;;;;;;;;23.40;38.50;;;;;;1561897;74;1491;-72
2021/05/20 11:58:16;;;;;;;;;;;23.40;38.50;;;;;;1562164;74;752;-71
2021/05/20 12:00:18;;;;;;;;;;;23.40;38.40;;;;;;1566631;74;1925;-71
2021/05/20 12:02:28;;;;;;;;;;;23.50;38.40;;;;;;1569021;74;768;-72
2021/05/20 12:04:29;;;;;;;;;;;23.40;38.00;;;;;;1562908;74;714;-72
2021/05/20 12:06:31;;;;;;;;;;;23.30;37.90;;;;;;1562735;74;726;-73
2021/05/20 12:08:33;;;;;;;;;;;23.40;37.80;;;;;;1558031;75;798;-70
2021/05/20 12:10:35;;;;;;;;;;;23.40;36.90;;;;;;1568829;74;1120;-69
2021/05/20 12:12:38;;;;;;;;;;;23.30;36.10;;;;;;1567948;74;784;-71
2021/05/20 12:14:40;;;;;;;;;;;23.30;36.00;;;;;;1572260;74;704;-68
2021/05/20 12:16:41;;;;;;;;;;;23.30;36.40;;;;;;1563491;74;944;-70
2021/05/20 12:18:43;;;;;;;;;;;23.30;36.40;;;;;;1567540;74;1144;-69
2021/05/20 12:20:46;;;;;;;;;;;23.20;36.40;;;;;;1561486;75;1926;-68
2021/05/20 12:22:49;;;;;;;;;;;23.20;36.30;;;;;;1560336;74;966;-68
2021/05/20 12:24:52;;;;;;;;;;;23.20;36.50;;;;;;1572402;74;1041;-68
2021/05/20 12:26:54;;;;;;;;;;;23.30;36.80;;;;;;1567667;74;966;-68